Lebanon, NH

4:23 PM EDT on August 28, 2016 (GMT -0400)
Spring Street | | Change Station

Elev 617 ft 43.64 °N, 72.25 °W | Updated 31 seconds ago

Clear
Clear
84.0 °F
Feels Like 86 °F
N
0.2
Wind Variable Wind from West
Gusts 2.5 mph

Today
High -- | Low -- °F
--% Chance of Precip.
Yesterday
High -- | Low -- °F
Precip. -- in
Pressure 30.11 in
Visibility 10.0 miles
Clouds Clear
Heat Index 86 °F
Dew Point 66 °F
Humidity 55%
Rainfall 0.00 in
Snow Depth Not available.
6:08 AM 7:30 PM
Waning Crescent, 13% visible
METAR KLEB 281953Z 18013KT 10SM CLR 30/19 A3014 RMK AO2 SLP194 T03000189
Pressure 30.11 in
Visibility 10.0 miles
Clouds Clear
Heat Index 86 °F
Dew Point 66 °F
Humidity 55%
Rainfall 0.00 in
Snow Depth Not available.
6:08 AM 7:30 PM
Waning Crescent, 13% visible
METAR KLEB 281953Z 18013KT 10SM CLR 30/19 A3014 RMK AO2 SLP194 T03000189

10-Day Weather Forecast

Almanac

Astronomy

Aug. 28, 2016 Rise Set
Actual Time
Civil Twilight
Nautical Twilight
Astronomical Twilight
Moon
Length of Visible Light
Length of Day
Tomorrow will be .
, % of the Moon is Illuminated

Today's Extremes

State Highs State Lows

Community

WunderPhotos

Upload Photos

1,935,678 photos uploaded!

WunderBlog® & News

Nearby

Air Quality

  Air Quality AQ Index Pollutant
Not available.

Snow Depth

Station Depth Elevation

Earthquake Activity

City Distance Mag. Time & Date
Minimum magnitude displayed is 2.5.

Coastal Water Temperatures

Place Temperature

Stations

Nearby Weather Stations

Station Location Temp. Windchill Dew Point Humidity Wind Precip. Elev Updated Type
                   

Watches & Warnings

There are currently no watches in effect.